Oil Finn — OJ9326 — position and weather

sailwx.info

Track history (hours):
 
Tides and Currents Weather Stations Pressure Air Temp Water Temp Dewpoint Dewpoint Depression Visibility Wind Speed Wind Dir Waves Ship Positions

Oil Finn

Last reported at 2016-Jul-21 04:03 UTC. Time now 2016-Jul-26 00:43 UTC.
Position N 60°15' E 026°16'.

Length 20 m; draft 2 m.

Type: Tanker. MMSI: 230033790.

Date/timePositionNaut miles runAvg speedWind from/ knotsBaromVisibWave heightAir tempDewpointWater temp
2016-Jul-21 04:03N 60°15' E 026°16'3 6.7
2016-Jul-21 03:33N 60°17' E 026°23'3 0.3
2016-Jul-20 15:34N 60°18' E 026°29'7 6.7
2016-Jul-20 14:34N 60°20' E 026°41'3 2.7
2016-Jul-20 13:33N 60°21' E 026°47'6 5.9
2016-Jul-20 12:34N 60°21' E 026°58'3 0.1
2016-Jul-19 16:14N 60°20' E 027°03'4 6.0
2016-Jul-19 15:33N 60°20' E 026°55'6 5.9
2016-Jul-19 14:33N 60°20' E 026°43'6 5.9
2016-Jul-19 13:33N 60°20' E 026°32'6 5.9
2016-Jul-19 12:33N 60°18' E 026°20'  
Track history (hours):
 
Tides and Currents Weather Stations Pressure Air Temp Water Temp Dewpoint Dewpoint Depression Visibility Wind Speed Wind Dir Waves Ship Positions

Oil Finn

Last reported at 2016-Jul-21 04:03 UTC. Time now 2016-Jul-26 00:43 UTC.
Position N 60°15' E 026°16'.

Length 20 m; draft 2 m.

Type: Tanker. MMSI: 230033790.

Date/timePositionNaut miles runAvg speedWind from/ knotsBaromVisibWave heightAir tempDewpointWater temp
2016-Jul-21 04:03N 60°15' E 026°16'3 6.7
2016-Jul-21 03:33N 60°17' E 026°23'3 0.3
2016-Jul-20 15:34N 60°18' E 026°29'7 6.7
2016-Jul-20 14:34N 60°20' E 026°41'3 2.7
2016-Jul-20 13:33N 60°21' E 026°47'6 5.9
2016-Jul-20 12:34N 60°21' E 026°58'3 0.1
2016-Jul-19 16:14N 60°20' E 027°03'4 6.0
2016-Jul-19 15:33N 60°20' E 026°55'6 5.9
2016-Jul-19 14:33N 60°20' E 026°43'6 5.9
2016-Jul-19 13:33N 60°20' E 026°32'6 5.9
2016-Jul-19 12:33N 60°18' E 026°20'  

Dump ship's entire track history